Assumption, Nebraska
Current Conditions -  °F | °C
As of 11:53 AM on Monday 20 Oct 2014 (Local Time) from KHSI Reporting Station
Clear Clear  
Wind Chill: 65°   Ceiling: Unl
Heat Index: 65°   Visibility: 10mi
Dew Point: 41°   Wind: 7mph
Humidity: 42%   Direction: 70°ENE
Pressure: 30.13"   Gusts: NA
Location:  40.5679°N, 98.5535°W
Report Text: KHSI 201653Z AUTO 07006KT 10SM CLR 18/05 A3013 RMK AO2 SLP200 T01830050
Loading
Personal Weather Stations






























Interactive Weather Map
Tropical Storm Tracking
New forecast layout! Learn more

10-Day Weather Forecast

Advertisements
Track Severe Weather on mobile